createdAt,value
2022-09-15T00:01:52.626Z,92.45
2022-09-15T00:07:27.833Z,92.58
2022-09-15T00:15:53.891Z,92.77
2022-09-15T00:21:29.876Z,92.90
2022-09-15T00:24:20.838Z,92.97
2022-09-15T00:29:56.961Z,93.17
2022-09-15T00:32:41.471Z,93.17
2022-09-15T00:38:16.624Z,93.25
2022-09-15T00:43:52.207Z,93.23
2022-09-15T00:49:27.589Z,93.28
2022-09-15T00:52:12.072Z,93.38
2022-09-15T00:57:47.620Z,93.54
2022-09-15T01:11:56.122Z,93.79
2022-09-15T01:17:32.244Z,93.85
2022-09-15T01:23:10.608Z,93.89
2022-09-15T01:28:53.041Z,93.98
2022-09-15T01:34:28.465Z,93.88
2022-09-15T01:40:08.734Z,93.83
2022-09-15T01:42:53.289Z,93.84
2022-09-15T01:48:28.624Z,93.85
2022-09-15T01:54:04.000Z,93.84
2022-09-15T01:59:39.231Z,93.81
2022-09-15T02:02:23.768Z,93.80
2022-09-15T02:07:59.194Z,93.70
2022-09-15T02:13:34.711Z,93.66
2022-09-15T02:19:10.026Z,93.52
2022-09-15T02:21:54.563Z,93.51
2022-09-15T02:27:32.782Z,93.60
2022-09-15T02:33:12.059Z,93.58
2022-09-15T02:38:48.290Z,93.59
2022-09-15T02:50:05.010Z,93.61
2022-09-15T02:52:49.689Z,93.66
2022-09-15T02:58:25.252Z,93.76
2022-09-15T03:04:00.611Z,93.86
2022-09-15T03:09:35.941Z,93.94
2022-09-15T03:12:20.382Z,93.99
2022-09-15T03:17:55.668Z,94.10
2022-09-15T03:23:30.961Z,94.16
2022-09-15T03:29:06.485Z,94.25
2022-09-15T03:31:51.182Z,94.28
2022-09-15T03:37:26.558Z,94.37
2022-09-15T03:43:01.874Z,94.48
2022-09-15T03:48:37.179Z,94.57
2022-09-15T03:57:03.398Z,94.66
2022-09-15T04:02:38.814Z,94.68
2022-09-15T04:08:14.178Z,94.76
2022-09-15T04:13:49.442Z,94.88
2022-09-15T04:19:24.813Z,94.91
2022-09-15T04:22:10.296Z,94.93
2022-09-15T04:27:48.494Z,94.96
2022-09-15T04:33:23.743Z,95.04
2022-09-15T04:36:08.246Z,95.05
2022-09-15T04:41:44.067Z,95.07
2022-09-15T04:47:19.374Z,95.12
2022-09-15T04:52:54.747Z,95.16
2022-09-15T04:58:30.052Z,95.21
2022-09-15T05:04:05.379Z,95.19
2022-09-15T05:09:40.726Z,95.26
2022-09-15T05:12:25.280Z,95.26
2022-09-15T05:18:00.666Z,95.21
2022-09-15T05:20:46.252Z,95.18
2022-09-15T05:23:30.881Z,95.17
2022-09-15T05:29:06.085Z,95.13
2022-09-15T05:31:50.720Z,95.04
2022-09-15T05:37:26.034Z,94.90
2022-09-15T05:43:01.304Z,94.83
2022-09-15T05:48:39.973Z,94.65
2022-09-15T05:54:15.346Z,94.30
2022-09-15T05:59:50.641Z,93.59
2022-09-15T06:02:35.221Z,93.33
2022-09-15T06:08:10.658Z,92.67
2022-09-15T06:13:50.015Z,92.07
2022-09-15T06:19:25.462Z,91.57
2022-09-15T06:25:00.935Z,90.87
2022-09-15T06:30:36.208Z,90.11
2022-09-15T06:33:20.715Z,89.76
2022-09-15T06:38:57.994Z,89.20
2022-09-15T06:44:33.430Z,88.57
2022-09-15T06:50:08.720Z,87.88
2022-09-15T06:52:53.235Z,87.62
2022-09-15T06:58:28.549Z,87.16
2022-09-15T07:04:04.904Z,86.48
2022-09-15T07:09:41.404Z,86.00
2022-09-15T07:12:26.441Z,85.79
2022-09-15T07:20:52.605Z,85.12
2022-09-15T07:23:37.113Z,84.92
2022-09-15T07:29:12.435Z,84.77
2022-09-15T07:31:57.279Z,84.75
2022-09-15T07:37:32.615Z,84.66
2022-09-15T07:43:07.966Z,84.24
2022-09-15T07:48:43.270Z,83.96
2022-09-15T07:57:09.451Z,83.19
2022-09-15T08:02:44.944Z,82.50
2022-09-15T08:08:20.251Z,82.03
2022-09-15T08:13:56.613Z,81.52
2022-09-15T08:22:22.586Z,80.55
2022-09-15T08:27:57.940Z,80.21
2022-09-15T08:33:33.138Z,79.90
2022-09-15T08:39:08.521Z,80.08
2022-09-15T08:44:44.841Z,79.97
2022-09-15T08:50:20.115Z,79.59
2022-09-15T08:53:05.573Z,79.52
2022-09-15T08:58:40.866Z,79.75
2022-09-15T09:04:18.330Z,79.27
2022-09-15T09:09:55.677Z,78.71
2022-09-15T09:12:43.687Z,78.38
2022-09-15T09:18:19.198Z,78.05
2022-09-15T09:23:54.547Z,77.77
2022-09-15T09:29:29.815Z,77.53
2022-09-15T09:32:16.049Z,76.91
2022-09-15T09:37:53.036Z,76.10
2022-09-15T09:40:38.649Z,75.90
2022-09-15T09:43:23.197Z,75.49
2022-09-15T09:48:58.492Z,74.20
2022-09-15T09:54:34.038Z,73.42
2022-09-15T10:00:09.364Z,72.32
2022-09-15T10:02:54.011Z,71.83
2022-09-15T10:08:29.594Z,70.30
2022-09-15T10:11:16.579Z,69.87
2022-09-15T10:14:01.300Z,69.91
2022-09-15T10:19:38.889Z,70.18
2022-09-15T10:22:23.573Z,69.91
2022-09-15T10:27:58.966Z,69.71
2022-09-15T10:33:34.504Z,68.33
2022-09-15T10:39:09.754Z,67.06
2022-09-15T10:44:45.240Z,64.63
2022-09-15T10:50:20.521Z,62.58
2022-09-15T10:53:05.228Z,61.97
2022-09-15T10:58:43.513Z,61.97
2022-09-15T11:04:26.825Z,61.67
2022-09-15T11:10:02.178Z,61.38
2022-09-15T11:12:46.732Z,61.04
2022-09-15T11:18:22.053Z,60.34
2022-09-15T11:23:57.306Z,60.49
2022-09-15T11:29:33.439Z,61.26
2022-09-15T11:32:19.077Z,61.66
2022-09-15T11:37:59.182Z,60.84
2022-09-15T11:43:34.693Z,60.02
2022-09-15T11:52:00.769Z,60.94
2022-09-15T11:57:36.118Z,60.17
2022-09-15T12:03:13.540Z,59.24
2022-09-15T12:08:48.953Z,58.54
2022-09-15T12:14:24.325Z,57.81
2022-09-15T12:19:59.515Z,57.42
2022-09-15T12:22:44.040Z,57.55
2022-09-15T12:28:20.319Z,58.53
2022-09-15T12:33:55.710Z,59.16
2022-09-15T12:39:31.019Z,59.66
2022-09-15T12:42:15.622Z,60.21
2022-09-15T12:47:51.043Z,60.74
2022-09-15T12:53:26.460Z,59.90
2022-09-15T12:59:05.920Z,56.37
2022-09-15T13:04:46.108Z,40.82
2022-09-15T13:10:21.472Z,35.81
2022-09-15T13:13:06.009Z,38.07
2022-09-15T13:18:41.202Z,40.87
2022-09-15T13:24:16.417Z,44.83
2022-09-15T13:29:51.674Z,45.36
2022-09-15T13:35:26.963Z,46.08
2022-09-15T13:43:53.173Z,42.10
2022-09-15T13:49:28.574Z,44.54
2022-09-15T13:55:03.874Z,46.14
2022-09-15T14:03:30.222Z,48.22
2022-09-15T14:09:06.570Z,49.31
2022-09-15T14:14:42.042Z,50.28
2022-09-15T14:20:17.385Z,50.42
2022-09-15T14:23:01.941Z,49.43
2022-09-15T14:28:37.229Z,48.36
2022-09-15T14:34:12.461Z,49.05
2022-09-15T14:36:57.049Z,48.63
2022-09-15T14:42:33.324Z,47.62
2022-09-15T14:48:08.655Z,46.92
2022-09-15T14:53:44.129Z,47.00
2022-09-15T14:56:28.715Z,47.10
2022-09-15T15:04:54.668Z,47.40
2022-09-15T15:07:39.155Z,47.33
2022-09-15T15:13:14.521Z,47.14
2022-09-15T15:21:43.319Z,47.97
2022-09-15T15:30:12.039Z,49.69
2022-09-15T15:35:47.338Z,50.69
2022-09-15T15:38:32.781Z,50.64
2022-09-15T15:41:20.723Z,50.88
2022-09-15T15:46:56.622Z,52.61
2022-09-15T15:52:32.038Z,54.69
2022-09-15T15:58:10.659Z,56.18
2022-09-15T16:03:47.749Z,56.14
2022-09-15T16:06:32.888Z,56.27
2022-09-15T16:17:50.111Z,56.16
2022-09-15T16:23:25.382Z,56.45
2022-09-15T16:29:00.943Z,56.82
2022-09-15T16:34:36.329Z,57.33
2022-09-15T16:37:21.154Z,57.58
2022-09-15T16:42:58.307Z,57.97
2022-09-15T16:48:34.373Z,58.97
2022-09-15T16:54:10.441Z,62.26
2022-09-15T16:56:55.088Z,64.37
2022-09-15T17:02:31.274Z,67.14
2022-09-15T17:10:57.275Z,70.42
2022-09-15T17:16:32.497Z,73.56
2022-09-15T17:22:07.720Z,76.95
2022-09-15T17:27:43.078Z,78.34
2022-09-15T17:33:18.289Z,79.46
2022-09-15T17:38:54.778Z,80.27
2022-09-15T17:44:33.195Z,80.66
2022-09-15T17:47:23.608Z,80.92
2022-09-15T17:52:58.938Z,81.41
2022-09-15T17:58:34.183Z,82.00
2022-09-15T18:04:09.720Z,82.24
2022-09-15T18:06:54.288Z,82.46
2022-09-15T18:12:29.604Z,82.58
2022-09-15T18:18:04.932Z,82.78
2022-09-15T18:23:42.335Z,83.15
2022-09-15T18:26:27.067Z,83.21
2022-09-15T18:32:02.362Z,83.40
2022-09-15T18:37:37.597Z,83.51
2022-09-15T18:43:12.941Z,83.54
2022-09-15T18:51:51.314Z,83.30
2022-09-15T18:57:23.302Z,83.08
2022-09-15T19:03:00.438Z,82.84
2022-09-15T19:08:35.846Z,82.63
2022-09-15T19:14:13.181Z,82.49
2022-09-15T19:16:59.657Z,82.45
2022-09-15T19:22:35.151Z,82.49
2022-09-15T19:28:11.433Z,82.50
2022-09-15T19:33:56.009Z,82.63
2022-09-15T19:36:40.535Z,82.67
2022-09-15T19:42:18.179Z,82.73
2022-09-15T19:47:53.544Z,82.78
2022-09-15T19:53:28.792Z,82.79
2022-09-15T20:01:54.778Z,83.25
2022-09-15T20:07:30.147Z,83.48
2022-09-15T20:13:05.467Z,84.13
2022-09-15T20:18:41.764Z,84.52
2022-09-15T20:24:17.013Z,84.79
2022-09-15T20:27:01.505Z,84.96
2022-09-15T20:29:46.105Z,85.04
2022-09-15T20:35:21.464Z,85.25
2022-09-15T20:38:09.361Z,85.25
2022-09-15T20:43:44.951Z,85.09
2022-09-15T20:49:20.294Z,84.75
2022-09-15T20:54:55.545Z,84.49
2022-09-15T21:00:33.779Z,84.05
2022-09-15T21:06:09.578Z,83.49
2022-09-15T21:08:54.217Z,83.27
2022-09-15T21:14:29.501Z,82.93
2022-09-15T21:20:04.971Z,82.67
2022-09-15T21:25:40.438Z,82.52
2022-09-15T21:28:24.942Z,82.39
2022-09-15T21:34:00.255Z,82.35
2022-09-15T21:39:35.582Z,82.30
2022-09-15T21:45:10.907Z,82.33
2022-09-15T21:47:55.541Z,82.42
2022-09-15T21:56:21.605Z,82.59
2022-09-15T21:59:06.141Z,82.69
2022-09-15T22:04:41.357Z,82.58
2022-09-15T22:10:16.794Z,82.56
2022-09-15T22:15:52.285Z,82.79
2022-09-15T22:18:36.780Z,82.96
2022-09-15T22:24:12.081Z,83.07
2022-09-15T22:29:47.545Z,83.13
2022-09-15T22:35:22.919Z,83.25
2022-09-15T22:38:07.487Z,83.33
2022-09-15T22:43:42.861Z,83.35
2022-09-15T22:49:18.112Z,83.50
2022-09-15T22:57:44.273Z,83.48
2022-09-15T23:03:19.745Z,83.67
2022-09-15T23:08:55.168Z,83.80
2022-09-15T23:14:30.418Z,83.93
2022-09-15T23:20:05.820Z,83.95
2022-09-15T23:25:41.281Z,84.05
2022-09-15T23:28:25.755Z,84.15
2022-09-15T23:34:01.318Z,84.37
2022-09-15T23:39:36.695Z,84.60
2022-09-15T23:45:12.030Z,84.75
2022-09-15T23:47:56.496Z,84.81
2022-09-15T23:53:31.972Z,85.06
2022-09-15T23:59:07.333Z,85.20
